createdAt,value
2017-05-18T00:00:53.755Z,87.69
2017-05-18T00:01:53.774Z,87.45
2017-05-18T00:02:53.758Z,87.40
2017-05-18T00:03:53.744Z,87.96
2017-05-18T00:04:53.753Z,87.90
2017-05-18T00:05:53.738Z,87.43
2017-05-18T00:06:53.755Z,87.67
2017-05-18T00:07:53.759Z,88.62
2017-05-18T00:08:53.777Z,88.23
2017-05-18T00:09:53.759Z,88.31
2017-05-18T00:10:53.749Z,88.57
2017-05-18T00:11:53.725Z,88.89
2017-05-18T00:12:53.757Z,89.32
2017-05-18T00:13:53.757Z,89.16
2017-05-18T00:14:53.779Z,89.51
2017-05-18T00:15:53.867Z,89.29
2017-05-18T00:16:53.759Z,89.54
2017-05-18T00:17:53.754Z,89.86
2017-05-18T00:18:53.752Z,90.07
2017-05-18T00:19:53.764Z,90.07
2017-05-18T00:20:53.728Z,90.02
2017-05-18T00:21:53.752Z,89.86
2017-05-18T00:22:53.751Z,89.48
2017-05-18T00:23:53.750Z,89.72
2017-05-18T00:24:53.764Z,89.24
2017-05-18T00:25:53.767Z,89.24
2017-05-18T00:26:53.758Z,88.52
2017-05-18T00:27:53.762Z,88.07
2017-05-18T00:28:53.826Z,88.20
2017-05-18T00:29:53.792Z,87.82
2017-05-18T00:30:53.757Z,87.90
2017-05-18T00:31:53.770Z,87.37
2017-05-18T00:32:53.769Z,87.18
2017-05-18T00:33:53.764Z,87.26
2017-05-18T00:34:53.736Z,87.13
2017-05-18T00:35:53.771Z,86.91
2017-05-18T00:36:53.763Z,86.94
2017-05-18T00:37:53.768Z,86.94
2017-05-18T00:38:53.764Z,86.65
2017-05-18T00:39:53.770Z,87.00
2017-05-18T00:40:53.736Z,87.02
2017-05-18T00:41:53.772Z,87.40
2017-05-18T00:42:53.798Z,87.40
2017-05-18T00:43:53.765Z,87.10
2017-05-18T00:44:53.776Z,86.79
2017-05-18T00:45:53.766Z,86.79
2017-05-18T00:46:53.840Z,86.91
2017-05-18T00:47:53.778Z,87.18
2017-05-18T00:48:53.779Z,87.53
2017-05-18T00:49:53.778Z,87.21
2017-05-18T00:50:53.800Z,87.34
2017-05-18T00:51:53.765Z,87.53
2017-05-18T00:52:53.780Z,87.53
2017-05-18T00:53:53.741Z,88.01
2017-05-18T00:54:53.763Z,87.67
2017-05-18T00:55:53.800Z,87.53
2017-05-18T00:56:53.800Z,87.37
2017-05-18T00:57:53.783Z,87.37
2017-05-18T00:58:53.889Z,87.82
2017-05-18T00:59:53.783Z,87.77
2017-05-18T01:00:53.776Z,87.72
2017-05-18T01:01:53.785Z,87.51
2017-05-18T01:02:53.769Z,87.18
2017-05-18T01:03:53.790Z,87.29
2017-05-18T01:04:53.808Z,87.16
2017-05-18T01:05:53.786Z,87.29
2017-05-18T01:06:53.791Z,86.94
2017-05-18T01:07:53.784Z,86.79
2017-05-18T01:08:53.751Z,87.18
2017-05-18T01:09:53.789Z,86.73
2017-05-18T01:10:53.768Z,86.60
2017-05-18T01:11:53.780Z,86.01
2017-05-18T01:12:53.788Z,85.83
2017-05-18T01:13:53.795Z,85.64
2017-05-18T01:14:53.778Z,85.30
2017-05-18T01:15:53.810Z,85.40
2017-05-18T01:16:53.811Z,85.43
2017-05-18T01:17:53.761Z,85.24
2017-05-18T01:18:53.813Z,85.32
2017-05-18T01:19:53.759Z,85.08
2017-05-18T01:20:53.777Z,85.00
2017-05-18T01:21:53.817Z,85.11
2017-05-18T01:22:53.761Z,85.08
2017-05-18T01:23:53.803Z,85.48
2017-05-18T01:24:53.783Z,85.50
2017-05-18T01:25:53.763Z,85.80
2017-05-18T01:26:53.797Z,85.69
2017-05-18T01:27:53.760Z,85.38
2017-05-18T01:28:53.798Z,85.91
2017-05-18T01:29:53.815Z,85.99
2017-05-18T01:30:53.801Z,85.72
2017-05-18T01:31:53.767Z,86.30
2017-05-18T01:32:53.804Z,86.15
2017-05-18T01:33:53.805Z,86.52
2017-05-18T01:34:53.805Z,85.99
2017-05-18T01:35:53.803Z,86.54
2017-05-18T01:36:53.803Z,86.63
2017-05-18T01:37:53.808Z,87.77
2017-05-18T01:38:53.802Z,88.17
2017-05-18T01:39:53.804Z,88.25
2017-05-18T01:40:53.794Z,88.50
2017-05-18T01:41:53.827Z,88.54
2017-05-18T01:42:53.808Z,88.84
2017-05-18T01:43:53.807Z,88.89
2017-05-18T01:44:53.806Z,88.92
2017-05-18T01:45:53.826Z,89.16
2017-05-18T01:46:53.809Z,89.03
2017-05-18T01:47:53.773Z,89.06
2017-05-18T01:48:53.771Z,89.40
2017-05-18T01:49:53.771Z,89.40
2017-05-18T01:50:53.771Z,89.27
2017-05-18T01:51:53.831Z,89.88
2017-05-18T01:52:53.804Z,89.97
2017-05-18T01:53:53.834Z,90.15
2017-05-18T01:54:53.813Z,90.26
2017-05-18T01:55:53.813Z,90.07
2017-05-18T01:56:53.779Z,90.26
2017-05-18T01:57:53.832Z,89.99
2017-05-18T01:58:53.918Z,90.71
2017-05-18T01:59:53.817Z,90.66
2017-05-18T02:00:53.815Z,91.33
2017-05-18T02:01:53.793Z,91.82
2017-05-18T02:02:53.779Z,91.49
2017-05-18T02:03:53.836Z,91.17
2017-05-18T02:04:53.835Z,91.38
2017-05-18T02:05:53.799Z,92.16
2017-05-18T02:06:53.798Z,92.27
2017-05-18T02:07:53.873Z,92.35
2017-05-18T02:08:53.824Z,92.16
2017-05-18T02:09:53.818Z,92.76
2017-05-18T02:10:53.843Z,93.26
2017-05-18T02:11:53.820Z,94.18
2017-05-18T02:12:53.815Z,95.20
2017-05-18T02:13:53.816Z,95.20
2017-05-18T02:14:53.785Z,95.47
2017-05-18T02:15:53.833Z,95.64
2017-05-18T02:16:53.822Z,95.75
2017-05-18T02:17:53.824Z,95.83
2017-05-18T02:18:53.805Z,95.58
2017-05-18T02:19:53.805Z,95.34
2017-05-18T02:20:53.803Z,95.18
2017-05-18T02:21:53.849Z,94.96
2017-05-18T02:22:53.829Z,95.10
2017-05-18T02:23:53.817Z,95.15
2017-05-18T02:24:53.828Z,95.23
2017-05-18T02:25:53.826Z,95.20
2017-05-18T02:26:53.845Z,94.99
2017-05-18T02:27:53.813Z,94.86
2017-05-18T02:28:53.853Z,94.80
2017-05-18T02:29:53.869Z,94.99
2017-05-18T02:30:53.813Z,94.83
2017-05-18T02:31:53.830Z,94.64
2017-05-18T02:32:53.820Z,94.40
2017-05-18T02:33:53.832Z,93.96
2017-05-18T02:34:53.821Z,93.94
2017-05-18T02:35:53.826Z,93.62
2017-05-18T02:36:53.836Z,93.56
2017-05-18T02:37:53.845Z,93.37
2017-05-18T02:38:53.839Z,93.29
2017-05-18T02:39:53.830Z,93.35
2017-05-18T02:40:53.801Z,93.35
2017-05-18T02:41:53.863Z,93.37
2017-05-18T02:42:53.838Z,93.37
2017-05-18T02:43:53.831Z,93.45
2017-05-18T02:44:53.828Z,93.24
2017-05-18T02:45:53.835Z,93.10
2017-05-18T02:46:53.891Z,92.99
2017-05-18T02:47:53.841Z,93.18
2017-05-18T02:48:53.832Z,92.99
2017-05-18T02:49:53.948Z,92.95
2017-05-18T02:50:53.807Z,92.91
2017-05-18T02:51:53.800Z,92.99
2017-05-18T02:52:53.846Z,93.10
2017-05-18T02:53:53.841Z,93.05
2017-05-18T02:54:53.833Z,93.24
2017-05-18T02:55:53.843Z,93.21
2017-05-18T02:56:53.807Z,93.26
2017-05-18T02:57:53.851Z,93.24
2017-05-18T02:58:53.845Z,93.35
2017-05-18T02:59:53.814Z,93.37
2017-05-18T03:00:53.808Z,93.37
2017-05-18T03:01:53.868Z,93.75
2017-05-18T03:02:53.848Z,93.96
2017-05-18T03:03:53.845Z,93.96
2017-05-18T03:04:53.877Z,94.29
2017-05-18T03:05:53.852Z,93.91
2017-05-18T03:06:53.828Z,93.94
2017-05-18T03:07:53.842Z,94.53
2017-05-18T03:08:53.850Z,94.53
2017-05-18T03:09:53.843Z,94.45
2017-05-18T03:10:53.835Z,95.37
2017-05-18T03:11:53.847Z,95.77
2017-05-18T03:12:53.858Z,95.61
2017-05-18T03:13:53.843Z,95.64
2017-05-18T03:14:53.844Z,95.47
2017-05-18T03:15:53.846Z,95.26
2017-05-18T03:16:53.844Z,95.04
2017-05-18T03:17:53.861Z,95.58
2017-05-18T03:18:53.899Z,96.09
2017-05-18T03:19:53.858Z,96.72
2017-05-18T03:20:53.845Z,97.34
2017-05-18T03:21:53.849Z,97.50
2017-05-18T03:22:53.858Z,97.50
2017-05-18T03:23:53.876Z,97.26
2017-05-18T03:24:53.859Z,97.53
2017-05-18T03:25:53.841Z,97.77
2017-05-18T03:26:53.968Z,97.66
2017-05-18T03:27:53.860Z,97.47
2017-05-18T03:28:53.862Z,97.26
2017-05-18T03:29:53.827Z,97.18
2017-05-18T03:30:53.856Z,97.47
2017-05-18T03:31:53.885Z,97.47
2017-05-18T03:32:53.968Z,97.45
2017-05-18T03:33:53.866Z,97.28
2017-05-18T03:34:53.857Z,97.23
2017-05-18T03:35:53.857Z,97.69
2017-05-18T03:36:53.829Z,97.80
2017-05-18T03:37:53.858Z,98.02
2017-05-18T03:38:53.840Z,98.31
2017-05-18T03:39:53.865Z,98.53
2017-05-18T03:40:53.832Z,98.83
2017-05-18T03:41:53.970Z,98.72
2017-05-18T03:42:53.867Z,98.64
2017-05-18T03:43:53.847Z,98.53
2017-05-18T03:44:53.871Z,98.45
2017-05-18T03:45:53.865Z,98.40
2017-05-18T03:46:53.866Z,98.59
2017-05-18T03:47:53.872Z,98.64
2017-05-18T03:48:53.888Z,98.61
2017-05-18T03:49:53.941Z,98.88
2017-05-18T03:50:53.868Z,99.26
2017-05-18T03:51:53.833Z,99.92
2017-05-18T03:52:53.865Z,99.89
2017-05-18T03:53:53.872Z,99.64
2017-05-18T03:54:53.872Z,99.62
2017-05-18T03:55:53.828Z,99.40
2017-05-18T03:56:53.978Z,99.21
2017-05-18T03:57:53.838Z,99.02
2017-05-18T03:58:53.840Z,98.85
2017-05-18T03:59:53.878Z,98.66
2017-05-18T04:00:53.877Z,98.37
2017-05-18T04:01:53.870Z,98.21
2017-05-18T04:02:53.880Z,98.15
2017-05-18T04:03:53.875Z,98.37
2017-05-18T04:04:53.869Z,98.23
2017-05-18T04:05:53.877Z,98.12
2017-05-18T04:06:53.875Z,98.15
2017-05-18T04:07:53.855Z,97.80
2017-05-18T04:08:53.883Z,97.47
2017-05-18T04:09:53.900Z,97.28
2017-05-18T04:10:53.880Z,97.21
2017-05-18T04:11:53.874Z,97.07
2017-05-18T04:12:53.900Z,97.04
2017-05-18T04:13:53.879Z,96.80
2017-05-18T04:14:53.877Z,96.69
2017-05-18T04:15:53.885Z,96.74
2017-05-18T04:16:53.844Z,96.61
2017-05-18T04:17:53.882Z,96.80
2017-05-18T04:18:53.847Z,97.55
2017-05-18T04:19:53.890Z,97.80
2017-05-18T04:20:53.844Z,97.74
2017-05-18T04:21:53.887Z,97.55
2017-05-18T04:22:53.883Z,97.61
2017-05-18T04:23:53.888Z,97.61
2017-05-18T04:24:53.885Z,97.83
2017-05-18T04:25:53.889Z,97.93
2017-05-18T04:26:53.908Z,97.80
2017-05-18T04:27:53.890Z,97.69
2017-05-18T04:28:53.870Z,97.50
2017-05-18T04:29:53.890Z,97.53
2017-05-18T04:30:53.850Z,97.80
2017-05-18T04:31:53.893Z,97.66
2017-05-18T04:32:53.892Z,97.47
2017-05-18T04:33:53.885Z,97.47
2017-05-18T04:34:53.896Z,97.31
2017-05-18T04:35:53.914Z,97.21
2017-05-18T04:36:53.916Z,97.10
2017-05-18T04:37:53.858Z,96.53
2017-05-18T04:38:53.853Z,96.13
2017-05-18T04:39:53.899Z,95.88
2017-05-18T04:40:53.873Z,95.75
2017-05-18T04:41:53.875Z,95.61
2017-05-18T04:42:53.890Z,95.53
2017-05-18T04:43:53.892Z,95.47
2017-05-18T04:44:53.892Z,95.26
2017-05-18T04:45:53.862Z,95.01
2017-05-18T04:46:53.919Z,94.77
2017-05-18T04:47:53.898Z,94.72
2017-05-18T04:48:53.900Z,94.64
2017-05-18T04:49:53.861Z,94.45
2017-05-18T04:50:53.862Z,94.45
2017-05-18T04:51:53.922Z,94.29
2017-05-18T04:52:53.903Z,94.26
2017-05-18T04:53:53.895Z,94.42
2017-05-18T04:54:53.898Z,94.45
2017-05-18T04:55:53.893Z,94.04
2017-05-18T04:56:53.894Z,93.72
2017-05-18T04:57:53.898Z,93.40
2017-05-18T04:58:53.906Z,93.16
2017-05-18T04:59:53.884Z,92.70
2017-05-18T05:00:53.870Z,92.40
2017-05-18T05:01:53.905Z,91.38
2017-05-18T05:02:53.930Z,91.30
2017-05-18T05:03:53.909Z,90.98
2017-05-18T05:04:53.909Z,90.82
2017-05-18T05:05:53.907Z,90.47
2017-05-18T05:06:53.911Z,90.71
2017-05-18T05:07:54.011Z,90.18
2017-05-18T05:08:53.891Z,89.45
2017-05-18T05:09:53.909Z,88.68
2017-05-18T05:10:53.910Z,88.25
2017-05-18T05:11:53.891Z,87.18
2017-05-18T05:12:53.913Z,86.81
2017-05-18T05:13:54.015Z,86.38
2017-05-18T05:14:53.874Z,86.65
2017-05-18T05:15:53.906Z,85.88
2017-05-18T05:16:53.906Z,85.64
2017-05-18T05:17:53.909Z,85.77
2017-05-18T05:18:53.916Z,85.75
2017-05-18T05:19:53.876Z,84.20
2017-05-18T05:20:53.917Z,83.83
2017-05-18T05:21:53.889Z,83.97
2017-05-18T05:22:53.923Z,84.05
2017-05-18T05:23:53.919Z,83.44
2017-05-18T05:24:53.920Z,83.65
2017-05-18T05:25:53.921Z,82.88
2017-05-18T05:26:53.937Z,82.67
2017-05-18T05:27:53.871Z,82.27
2017-05-18T05:28:53.925Z,81.95
2017-05-18T05:29:53.914Z,81.56
2017-05-18T05:30:53.919Z,80.71
2017-05-18T05:31:53.896Z,79.75
2017-05-18T05:32:53.885Z,80.55
2017-05-18T05:33:53.944Z,79.63
2017-05-18T05:34:53.945Z,79.97
2017-05-18T05:35:53.921Z,78.97
2017-05-18T05:36:53.884Z,78.70
2017-05-18T05:37:53.901Z,78.36
2017-05-18T05:38:53.924Z,78.17
2017-05-18T05:39:53.946Z,78.39
2017-05-18T05:40:53.927Z,76.07
2017-05-18T05:41:53.946Z,76.89
2017-05-18T05:42:53.983Z,77.89
2017-05-18T05:43:53.925Z,76.86
2017-05-18T05:44:53.930Z,75.70
2017-05-18T05:45:53.927Z,73.32
2017-05-18T05:46:53.912Z,73.03
2017-05-18T05:47:53.932Z,72.53
2017-05-18T05:48:53.922Z,70.40
2017-05-18T05:49:53.931Z,71.03
2017-05-18T05:50:53.936Z,71.00
2017-05-18T05:51:53.983Z,69.28
2017-05-18T05:52:53.924Z,68.89
2017-05-18T05:53:53.953Z,66.66
2017-05-18T05:54:53.935Z,66.87
2017-05-18T05:56:53.913Z,67.02
2017-05-18T05:57:53.936Z,65.78
2017-05-18T05:58:53.956Z,65.08
2017-05-18T05:59:53.898Z,66.20
2017-05-18T06:00:53.951Z,64.15
2017-05-18T06:01:53.959Z,65.22
2017-05-18T06:02:53.900Z,65.01
2017-05-18T06:03:53.930Z,64.93
2017-05-18T06:04:53.939Z,64.26
2017-05-18T06:05:53.916Z,64.26
2017-05-18T06:06:53.946Z,63.51
2017-05-18T06:07:53.914Z,63.74
2017-05-18T06:08:53.941Z,63.28
2017-05-18T06:09:53.941Z,62.84
2017-05-18T06:10:53.947Z,62.18
2017-05-18T06:11:53.932Z,63.02
2017-05-18T06:12:53.936Z,62.77
2017-05-18T06:13:53.920Z,62.90
2017-05-18T06:14:53.936Z,62.53
2017-05-18T06:15:53.937Z,62.63
2017-05-18T06:16:53.943Z,61.33
2017-05-18T06:17:53.945Z,61.48
2017-05-18T06:18:53.947Z,61.63
2017-05-18T06:19:53.967Z,61.09
2017-05-18T06:20:53.960Z,60.68
2017-05-18T06:21:53.941Z,61.27
2017-05-18T06:22:53.927Z,60.97
2017-05-18T06:23:53.942Z,61.02
2017-05-18T06:24:53.922Z,60.40
2017-05-18T06:25:53.941Z,60.17
2017-05-18T06:26:53.940Z,59.84
2017-05-18T06:27:53.952Z,61.22
2017-05-18T06:28:53.946Z,59.99
2017-05-18T06:29:53.914Z,60.97
2017-05-18T06:30:53.910Z,60.91
2017-05-18T06:31:53.946Z,61.14
2017-05-18T06:32:53.945Z,61.35
2017-05-18T06:33:53.974Z,60.66
2017-05-18T06:34:53.952Z,60.45
2017-05-18T06:35:53.955Z,60.97
2017-05-18T06:36:53.955Z,59.65
2017-05-18T06:37:53.939Z,61.84
2017-05-18T06:38:53.951Z,61.02
2017-05-18T06:39:53.959Z,61.89
2017-05-18T06:40:53.918Z,58.59
2017-05-18T06:41:53.977Z,59.63
2017-05-18T06:42:53.981Z,59.20
2017-05-18T06:43:53.919Z,59.99
2017-05-18T06:44:53.975Z,58.15
2017-05-18T06:45:53.957Z,58.89
2017-05-18T06:46:53.955Z,58.35
2017-05-18T06:47:53.953Z,59.30
2017-05-18T06:48:53.955Z,57.97
2017-05-18T06:49:54.003Z,57.02
2017-05-18T06:50:53.957Z,57.84
2017-05-18T06:51:53.924Z,57.30
2017-05-18T06:52:53.925Z,57.87
2017-05-18T06:53:53.956Z,57.71
2017-05-18T06:54:53.972Z,56.69
2017-05-18T06:55:53.964Z,57.54
2017-05-18T06:56:53.962Z,58.35
2017-05-18T06:57:53.968Z,58.59
2017-05-18T06:58:53.972Z,58.33
2017-05-18T06:59:53.966Z,57.97
2017-05-18T07:00:53.959Z,58.89
2017-05-18T07:01:53.969Z,58.40
2017-05-18T07:02:53.988Z,58.61
2017-05-18T07:03:53.911Z,57.66
2017-05-18T07:04:53.876Z,58.33
2017-05-18T07:05:53.990Z,58.25
2017-05-18T07:06:53.907Z,57.38
2017-05-18T07:07:53.912Z,57.30
2017-05-18T07:08:53.917Z,57.23
2017-05-18T07:09:53.867Z,57.21
2017-05-18T07:10:53.915Z,56.24
2017-05-18T07:11:53.912Z,56.57
2017-05-18T07:12:53.912Z,57.21
2017-05-18T07:13:53.973Z,55.45
2017-05-18T07:14:53.977Z,55.19
2017-05-18T07:15:53.975Z,55.80
2017-05-18T07:16:53.969Z,57.26
2017-05-18T07:17:53.943Z,55.70
2017-05-18T07:18:53.963Z,53.77
2017-05-18T07:19:53.946Z,55.06
2017-05-18T07:20:54.028Z,54.30
2017-05-18T07:21:53.974Z,55.57
2017-05-18T07:22:53.983Z,53.39
2017-05-18T07:23:53.949Z,52.70
2017-05-18T07:24:53.947Z,53.01
2017-05-18T07:25:53.948Z,53.72
2017-05-18T07:26:53.952Z,53.01
2017-05-18T07:27:53.948Z,54.66
2017-05-18T07:28:53.952Z,52.98
2017-05-18T07:29:53.950Z,52.68
2017-05-18T07:30:53.950Z,52.73
2017-05-18T07:31:53.956Z,51.82
2017-05-18T07:32:53.972Z,51.69
2017-05-18T07:33:53.979Z,51.84
2017-05-18T07:34:54.092Z,51.62
2017-05-18T07:35:54.028Z,52.37
2017-05-18T07:36:53.983Z,52.96
2017-05-18T07:37:53.996Z,53.84
2017-05-18T07:38:53.987Z,52.60
2017-05-18T07:39:53.982Z,52.68
2017-05-18T07:40:54.013Z,51.21
2017-05-18T07:41:53.995Z,52.60
2017-05-18T07:42:54.034Z,50.63
2017-05-18T07:43:54.017Z,51.49
2017-05-18T07:44:53.997Z,51.41
2017-05-18T07:45:53.992Z,51.37
2017-05-18T07:46:53.997Z,50.45
2017-05-18T07:47:53.993Z,50.63
2017-05-18T07:48:54.025Z,49.22
2017-05-18T07:49:53.996Z,49.87
2017-05-18T07:50:54.032Z,50.80
2017-05-18T07:51:53.959Z,49.64
2017-05-18T07:52:54.002Z,50.00
2017-05-18T07:53:53.990Z,49.47
2017-05-18T07:54:53.997Z,50.40
2017-05-18T07:55:53.955Z,51.64
2017-05-18T07:56:53.990Z,51.37
2017-05-18T07:57:53.984Z,51.64
2017-05-18T07:58:53.985Z,51.46
2017-05-18T07:59:53.990Z,51.57
2017-05-18T08:00:53.992Z,50.33
2017-05-18T08:01:53.990Z,48.86
2017-05-18T08:02:53.991Z,49.12
2017-05-18T08:03:54.025Z,49.12
2017-05-18T08:04:54.006Z,47.98
2017-05-18T08:05:54.001Z,48.77
2017-05-18T08:06:54.105Z,47.98
2017-05-18T08:07:54.029Z,50.00
2017-05-18T08:08:54.019Z,48.86
2017-05-18T08:09:54.027Z,46.50
2017-05-18T08:10:53.999Z,46.15
2017-05-18T08:11:53.996Z,46.20
2017-05-18T08:12:54.047Z,46.50
2017-05-18T08:13:54.028Z,46.58
2017-05-18T08:14:53.992Z,47.43
2017-05-18T08:15:54.005Z,47.53
2017-05-18T08:16:53.967Z,47.26
2017-05-18T08:17:53.995Z,47.40
2017-05-18T08:18:54.012Z,46.05
2017-05-18T08:19:53.976Z,47.15
2017-05-18T08:20:54.013Z,47.38
2017-05-18T08:21:54.031Z,48.94
2017-05-18T08:22:54.001Z,45.52
2017-05-18T08:23:53.976Z,45.15
2017-05-18T08:24:53.987Z,48.28
2017-05-18T08:25:53.982Z,47.13
2017-05-18T08:26:53.980Z,46.68
2017-05-18T08:27:53.980Z,46.73
2017-05-18T08:28:54.005Z,47.06
2017-05-18T08:29:53.984Z,50.22
2017-05-18T08:30:53.980Z,49.19
2017-05-18T08:31:53.983Z,46.12
2017-05-18T08:32:53.986Z,47.06
2017-05-18T08:33:54.010Z,45.57
2017-05-18T08:34:54.007Z,47.38
2017-05-18T08:35:54.007Z,44.39
2017-05-18T08:36:54.009Z,45.80
2017-05-18T08:37:54.015Z,44.75
2017-05-18T08:38:54.010Z,45.45
2017-05-18T08:39:54.002Z,46.15
2017-05-18T08:40:54.011Z,45.90
2017-05-18T08:41:54.009Z,45.77
2017-05-18T08:42:54.012Z,46.83
2017-05-18T08:43:54.013Z,45.65
2017-05-18T08:44:54.012Z,46.60
2017-05-18T08:45:54.007Z,44.30
2017-05-18T08:46:54.020Z,43.08
2017-05-18T08:47:54.027Z,43.00
2017-05-18T08:48:54.025Z,44.17
2017-05-18T08:49:54.015Z,45.65
2017-05-18T08:50:54.019Z,44.43
2017-05-18T08:51:54.031Z,45.00
2017-05-18T08:52:54.033Z,46.02
2017-05-18T08:53:53.994Z,46.52
2017-05-18T08:54:53.998Z,46.10
2017-05-18T08:55:53.998Z,45.32
2017-05-18T08:56:54.000Z,46.63
2017-05-18T08:57:54.002Z,44.95
2017-05-18T08:58:54.000Z,47.71
2017-05-18T08:59:53.999Z,44.77
2017-05-18T09:00:54.003Z,45.65
2017-05-18T09:01:54.003Z,42.90
2017-05-18T09:02:54.012Z,44.55
2017-05-18T09:03:54.003Z,43.30
2017-05-18T09:04:54.023Z,42.95
2017-05-18T09:05:54.026Z,45.25
2017-05-18T09:06:54.025Z,44.70
2017-05-18T09:07:54.024Z,46.35
2017-05-18T09:08:54.023Z,49.24
2017-05-18T09:09:54.026Z,44.90
2017-05-18T09:10:54.024Z,45.98
2017-05-18T09:11:54.020Z,45.30
2017-05-18T09:12:54.030Z,45.65
2017-05-18T09:13:54.019Z,45.73
2017-05-18T09:14:54.021Z,44.77
2017-05-18T09:15:54.016Z,45.95
2017-05-18T09:16:54.019Z,47.26
2017-05-18T09:17:54.027Z,46.75
2017-05-18T09:18:54.019Z,46.27
2017-05-18T09:19:54.027Z,46.02
2017-05-18T09:20:54.020Z,45.98
2017-05-18T09:21:54.027Z,47.78
2017-05-18T09:22:54.022Z,45.68
2017-05-18T09:23:54.018Z,46.70
2017-05-18T09:24:54.010Z,47.38
2017-05-18T09:25:54.012Z,46.43
2017-05-18T09:26:54.011Z,46.05
2017-05-18T09:27:54.014Z,44.57
2017-05-18T09:28:54.012Z,46.45
2017-05-18T09:29:54.014Z,47.00
2017-05-18T09:30:54.016Z,44.62
2017-05-18T09:31:54.015Z,46.55
2017-05-18T09:32:54.016Z,45.68
2017-05-18T09:33:54.015Z,44.32
2017-05-18T09:34:54.018Z,44.20
2017-05-18T09:35:54.016Z,45.20
2017-05-18T09:36:54.017Z,45.18
2017-05-18T09:37:54.017Z,44.60
2017-05-18T09:38:54.020Z,43.85
2017-05-18T09:39:54.021Z,44.32
2017-05-18T09:40:54.121Z,44.30
2017-05-18T09:41:54.024Z,44.60
2017-05-18T09:42:54.019Z,45.37
2017-05-18T09:43:54.022Z,50.27
2017-05-18T09:44:54.042Z,44.60
2017-05-18T09:45:54.040Z,45.95
2017-05-18T09:46:54.048Z,45.00
2017-05-18T09:47:54.046Z,45.20
2017-05-18T09:48:54.045Z,44.32
2017-05-18T09:49:54.037Z,45.55
2017-05-18T09:50:54.032Z,44.77
2017-05-18T09:51:54.048Z,46.32
2017-05-18T09:52:54.063Z,45.57
2017-05-18T09:53:54.046Z,45.80
2017-05-18T09:54:54.130Z,46.48
2017-05-18T09:55:54.028Z,46.43
2017-05-18T09:56:54.021Z,44.82
2017-05-18T09:57:54.027Z,43.65
2017-05-18T09:58:54.029Z,43.82
2017-05-18T09:59:54.032Z,43.75
2017-05-18T10:00:54.032Z,44.43
2017-05-18T10:01:54.030Z,45.18
2017-05-18T10:02:54.044Z,45.73
2017-05-18T10:03:54.029Z,46.63
2017-05-18T10:04:54.055Z,43.72
2017-05-18T10:05:54.026Z,45.40
2017-05-18T10:06:54.060Z,42.65
2017-05-18T10:07:54.056Z,42.70
2017-05-18T10:08:54.057Z,42.48
2017-05-18T10:09:54.061Z,42.08
2017-05-18T10:10:54.024Z,43.45
2017-05-18T10:11:54.060Z,43.82
2017-05-18T10:12:54.060Z,44.32
2017-05-18T10:13:54.061Z,47.18
2017-05-18T10:14:54.057Z,41.50
2017-05-18T10:15:54.063Z,40.13
2017-05-18T10:16:54.056Z,40.19
2017-05-18T10:17:54.048Z,40.13
2017-05-18T10:18:54.051Z,39.84
2017-05-18T10:19:54.052Z,38.85
2017-05-18T10:20:54.049Z,39.89
2017-05-18T10:21:54.050Z,40.11
2017-05-18T10:22:54.055Z,39.74
2017-05-18T10:23:54.057Z,40.54
2017-05-18T10:24:54.053Z,41.38
2017-05-18T10:25:54.051Z,42.90
2017-05-18T10:26:54.051Z,42.75
2017-05-18T10:27:54.052Z,43.33
2017-05-18T10:28:54.059Z,44.90
2017-05-18T10:29:54.054Z,45.35
2017-05-18T10:30:54.053Z,46.02
2017-05-18T10:31:54.124Z,46.20
2017-05-18T10:32:54.058Z,45.80
2017-05-18T10:33:54.062Z,47.13
2017-05-18T10:34:53.964Z,45.65
2017-05-18T10:35:53.969Z,46.07
2017-05-18T10:36:54.034Z,46.63
2017-05-18T10:37:53.978Z,46.58
2017-05-18T10:38:54.034Z,47.15
2017-05-18T10:39:54.011Z,46.30
2017-05-18T10:40:54.039Z,47.73
2017-05-18T10:41:53.973Z,46.85
2017-05-18T10:42:54.033Z,45.77
2017-05-18T10:43:54.021Z,46.12
2017-05-18T10:44:54.077Z,47.61
2017-05-18T10:45:54.077Z,45.80
2017-05-18T10:46:54.059Z,46.60
2017-05-18T10:47:54.056Z,47.51
2017-05-18T10:48:54.080Z,46.30
2017-05-18T10:49:54.083Z,47.78
2017-05-18T10:50:54.090Z,47.03
2017-05-18T10:51:54.102Z,45.70
2017-05-18T10:52:54.106Z,46.32
2017-05-18T10:53:54.086Z,46.90
2017-05-18T10:54:54.053Z,47.91
2017-05-18T10:55:54.054Z,46.78
2017-05-18T10:56:54.055Z,47.45
2017-05-18T10:57:54.062Z,46.05
2017-05-18T10:58:54.057Z,46.18
2017-05-18T10:59:54.061Z,45.10
2017-05-18T11:00:54.059Z,47.38
2017-05-18T11:01:54.060Z,45.27
2017-05-18T11:02:54.062Z,44.62
2017-05-18T11:03:54.058Z,44.93
2017-05-18T11:04:54.086Z,46.15
2017-05-18T11:05:54.087Z,45.93
2017-05-18T11:06:54.117Z,45.87
2017-05-18T11:07:54.116Z,45.20
2017-05-18T11:08:54.088Z,45.00
2017-05-18T11:09:54.057Z,44.25
2017-05-18T11:10:54.084Z,43.95
2017-05-18T11:11:54.097Z,44.90
2017-05-18T11:12:54.102Z,44.64
2017-05-18T11:13:54.116Z,45.12
2017-05-18T11:14:54.092Z,43.95
2017-05-18T11:15:54.062Z,43.97
2017-05-18T11:16:54.094Z,45.20
2017-05-18T11:17:54.090Z,46.55
2017-05-18T11:18:54.100Z,47.33
2017-05-18T11:19:54.115Z,43.65
2017-05-18T11:20:54.114Z,43.20
2017-05-18T11:21:54.116Z,44.87
2017-05-18T11:22:54.101Z,49.06
2017-05-18T11:23:54.105Z,46.90
2017-05-18T11:24:54.060Z,45.27
2017-05-18T11:25:54.123Z,44.64
2017-05-18T11:26:54.109Z,47.48
2017-05-18T11:27:54.107Z,46.15
2017-05-18T11:28:54.102Z,45.25
2017-05-18T11:29:54.106Z,45.05
2017-05-18T11:30:54.110Z,45.18
2017-05-18T11:31:54.103Z,46.50
2017-05-18T11:32:54.110Z,46.05
2017-05-18T11:33:54.112Z,46.90
2017-05-18T11:34:54.076Z,46.30
2017-05-18T11:35:54.115Z,46.60
2017-05-18T11:36:54.104Z,47.13
2017-05-18T11:37:54.077Z,46.20
2017-05-18T11:38:54.083Z,47.51
2017-05-18T11:39:54.123Z,47.78
2017-05-18T11:40:54.141Z,47.15
2017-05-18T11:41:54.114Z,48.26
2017-05-18T11:42:54.124Z,47.23
2017-05-18T11:43:54.115Z,48.69
2017-05-18T11:44:54.083Z,48.54
2017-05-18T11:45:54.087Z,48.64
2017-05-18T11:46:54.084Z,48.72
2017-05-18T11:47:54.085Z,49.49
2017-05-18T11:48:54.088Z,50.10
2017-05-18T11:49:54.090Z,49.75
2017-05-18T11:50:54.087Z,53.21
2017-05-18T11:51:54.092Z,56.08
2017-05-18T11:52:54.091Z,55.37
2017-05-18T11:53:54.093Z,51.57
2017-05-18T11:54:54.124Z,51.41
2017-05-18T11:55:54.118Z,54.23
2017-05-18T11:56:54.125Z,51.77
2017-05-18T11:57:54.149Z,52.75
2017-05-18T11:58:54.129Z,56.52
2017-05-18T11:59:54.128Z,56.13
2017-05-18T12:00:54.118Z,55.22
2017-05-18T12:01:54.090Z,53.09
2017-05-18T12:02:54.138Z,52.10
2017-05-18T12:03:54.121Z,51.16
2017-05-18T12:04:54.101Z,51.33
2017-05-18T12:05:54.095Z,55.11
2017-05-18T12:06:54.099Z,55.98
2017-05-18T12:07:54.095Z,52.40
2017-05-18T12:08:54.098Z,52.37
2017-05-18T12:09:54.098Z,53.39
2017-05-18T12:10:54.097Z,54.99
2017-05-18T12:11:54.104Z,55.30
2017-05-18T12:12:54.102Z,52.27
2017-05-18T12:13:54.103Z,54.56
2017-05-18T12:14:54.135Z,54.94
2017-05-18T12:15:54.124Z,55.50
2017-05-18T12:16:54.127Z,54.28
2017-05-18T12:17:54.128Z,55.11
2017-05-18T12:18:54.138Z,54.61
2017-05-18T12:19:54.102Z,54.99
2017-05-18T12:20:54.135Z,55.22
2017-05-18T12:21:54.136Z,55.80
2017-05-18T12:22:54.163Z,56.31
2017-05-18T12:23:54.129Z,56.24
2017-05-18T12:24:54.106Z,56.90
2017-05-18T12:25:54.108Z,56.18
2017-05-18T12:26:54.139Z,57.08
2017-05-18T12:27:54.202Z,56.95
2017-05-18T12:28:54.180Z,57.61
2017-05-18T12:29:54.107Z,58.04
2017-05-18T12:30:54.182Z,58.46
2017-05-18T12:31:54.135Z,57.61
2017-05-18T12:32:54.124Z,57.61
2017-05-18T12:33:54.125Z,58.10
2017-05-18T12:34:54.142Z,60.01
2017-05-18T12:35:54.146Z,63.85
2017-05-18T12:36:54.145Z,67.13
2017-05-18T12:37:54.146Z,71.26
2017-05-18T12:38:54.115Z,71.07
2017-05-18T12:39:54.146Z,74.71
2017-05-18T12:40:54.152Z,79.97
2017-05-18T12:41:54.252Z,83.20
2017-05-18T12:42:54.151Z,87.74
2017-05-18T12:43:54.147Z,90.71
2017-05-18T12:44:54.130Z,92.14
2017-05-18T12:45:54.116Z,93.62
2017-05-18T12:46:54.141Z,96.04
2017-05-18T12:47:54.146Z,97.77
2017-05-18T12:48:54.130Z,99.23
2017-05-18T12:49:54.141Z,98.66
2017-05-18T12:50:54.149Z,98.48
2017-05-18T12:51:54.145Z,97.74
2017-05-18T12:52:54.135Z,98.94
2017-05-18T12:53:54.148Z,99.99